Time;durP1;ratioP1;P1;durP2;ratioP2;P2;SDS_P1;SDS_P2;PMS_P1;PMS_P2;Temp;Humidity;BMP_temperature;BMP_pressure;BME280_temperature;BME280_humidity;BME280_pressure;Samples;Min_cycle;Max_cycle;Signal;HPM_P1;HPM_P2
2021/01/04 00:02:03;;;;;;;8.43;3.57;;;4.60;99.90;;;;;;5026556;28;20898;-48
2021/01/04 00:04:58;;;;;;;9.83;3.70;;;4.60;99.90;;;;;;5027254;28;20473;-48
2021/01/04 00:08:03;;;;;;;6.53;3.73;;;4.60;99.90;;;;;;5027295;28;20485;-48
2021/01/04 00:10:43;;;;;;;5.17;3.37;;;4.60;99.90;;;;;;5026953;28;20471;-48
2021/01/04 00:13:24;;;;;;;7.47;4.00;;;4.60;99.90;;;;;;5026396;28;21072;-48
2021/01/04 00:16:03;;;;;;;6.60;3.80;;;4.60;99.90;;;;;;5014544;28;20567;-48
2021/01/04 00:18:44;;;;;;;7.07;3.73;;;4.60;99.90;;;;;;5007267;28;20546;-48
2021/01/04 00:21:23;;;;;;;8.13;4.00;;;4.60;99.90;;;;;;5006849;28;20917;-48
2021/01/04 00:24:07;;;;;;;6.73;3.63;;;4.70;99.90;;;;;;5007251;28;20638;-48
2021/01/04 00:26:46;;;;;;;10.57;3.53;;;4.70;99.90;;;;;;5007707;28;20508;-48
2021/01/04 00:29:14;;;;;;;6.30;3.70;;;4.70;99.90;;;;;;5007618;28;20504;-49
2021/01/04 00:31:48;;;;;;;6.00;3.60;;;4.70;99.90;;;;;;5006723;28;20939;-48
2021/01/04 00:34:20;;;;;;;7.57;3.33;;;4.70;99.90;;;;;;5007570;28;20835;-49
2021/01/04 00:37:43;;;;;;;6.60;3.47;;;4.70;99.90;;;;;;5009716;28;20475;-48
2021/01/04 00:40:24;;;;;;;7.50;3.60;;;4.80;99.90;;;;;;4999949;28;20573;-48
2021/01/04 00:43:08;;;;;;;6.13;3.23;;;4.80;99.90;;;;;;5007239;28;20475;-48
2021/01/04 00:45:42;;;;;;;7.17;3.10;;;4.80;99.90;;;;;;5017862;28;20501;-48
2021/01/04 00:48:18;;;;;;;5.63;3.20;;;4.80;99.90;;;;;;5023461;28;20485;-48
2021/01/04 00:51:06;;;;;;;6.57;3.10;;;4.80;99.90;;;;;;5010443;28;20873;-48
2021/01/04 00:53:38;;;;;;;8.20;3.60;;;4.80;99.90;;;;;;5012744;28;20663;-48
2021/01/04 00:56:34;;;;;;;7.33;3.27;;;4.80;99.90;;;;;;5012123;28;20574;-48
2021/01/04 00:59:10;;;;;;;6.57;3.40;;;4.80;99.90;;;;;;5011177;28;20524;-48
2021/01/04 01:02:02;;;;;;;5.53;3.07;;;4.90;99.90;;;;;;5010925;28;20569;-47
2021/01/04 01:04:39;;;;;;;5.77;3.53;;;4.80;99.90;;;;;;5011115;28;20510;-48
2021/01/04 01:07:14;;;;;;;5.97;3.23;;;4.80;99.90;;;;;;5010842;28;20556;-48
2021/01/04 01:09:46;;;;;;;5.47;3.40;;;4.80;99.90;;;;;;5012800;28;20924;-48
2021/01/04 01:12:42;;;;;;;6.03;3.40;;;4.80;99.90;;;;;;4990851;28;20861;-48
2021/01/04 01:15:22;;;;;;;7.43;3.00;;;4.80;99.90;;;;;;4999823;28;20501;-48
2021/01/04 01:18:34;;;;;;;6.73;3.13;;;4.80;99.90;;;;;;5010093;28;20521;-48
2021/01/04 01:21:06;;;;;;;7.47;3.17;;;4.70;99.90;;;;;;5009737;28;20513;-49
2021/01/04 01:23:36;;;;;;;6.13;3.17;;;4.70;99.90;;;;;;5010231;28;20559;-48
2021/01/04 01:26:29;;;;;;;5.83;2.70;;;4.70;99.90;;;;;;5009972;28;20480;-48
2021/01/04 01:29:19;;;;;;;6.80;3.03;;;4.70;99.90;;;;;;5010445;28;20923;-49
2021/01/04 01:32:37;;;;;;;5.03;2.97;;;4.70;99.90;;;;;;5009338;28;20565;-48
2021/01/04 01:35:22;;;;;;;6.47;2.87;;;4.60;99.90;;;;;;5010309;28;20467;-48
2021/01/04 01:38:25;;;;;;;6.53;2.97;;;4.60;99.90;;;;;;5008228;28;20487;-48
2021/01/04 01:41:13;;;;;;;7.93;3.17;;;4.70;99.90;;;;;;5011050;28;20520;-48
2021/01/04 01:44:03;;;;;;;6.67;3.13;;;4.60;99.90;;;;;;5025421;28;20505;-48
2021/01/04 01:46:39;;;;;;;7.60;3.23;;;4.70;99.90;;;;;;5009582;28;20500;-48
2021/01/04 01:49:33;;;;;;;4.93;3.03;;;4.60;99.90;;;;;;5009919;28;20968;-48
2021/01/04 01:52:16;;;;;;;7.47;3.60;;;4.60;99.90;;;;;;5010023;28;20986;-48
2021/01/04 01:55:20;;;;;;;5.67;3.13;;;4.60;99.90;;;;;;5009805;28;20478;-48
2021/01/04 01:58:35;;;;;;;5.70;2.67;;;4.60;99.90;;;;;;5009646;28;21018;-48
2021/01/04 02:01:14;;;;;;;7.97;3.03;;;4.60;99.90;;;;;;4978493;28;20531;-48
2021/01/04 02:03:49;;;;;;;5.67;2.93;;;4.60;99.90;;;;;;4989324;28;20476;-48
2021/01/04 02:06:32;;;;;;;6.60;3.40;;;4.60;99.90;;;;;;4990053;28;20472;-48
2021/01/04 02:09:09;;;;;;;7.33;3.50;;;4.60;99.90;;;;;;4990065;28;20887;-48
2021/01/04 02:11:49;;;;;;;6.40;2.80;;;4.60;99.90;;;;;;4989565;28;20501;-49
2021/01/04 02:14:32;;;;;;;7.20;3.00;;;4.60;99.90;;;;;;4997993;28;20572;-48
2021/01/04 02:17:27;;;;;;;5.67;2.90;;;4.60;99.90;;;;;;5009476;28;20499;-48
2021/01/04 02:20:27;;;;;;;6.67;2.80;;;4.60;99.90;;;;;;5008827;28;21019;-47
2021/01/04 02:23:15;;;;;;;6.17;2.53;;;4.70;99.90;;;;;;5008805;28;20480;-48
2021/01/04 02:25:47;;;;;;;7.23;2.77;;;4.60;99.90;;;;;;5009095;28;20482;-48
2021/01/04 02:28:23;;;;;;;5.67;2.70;;;4.70;99.90;;;;;;5008791;28;20476;-48
2021/01/04 02:30:50;;;;;;;5.07;2.67;;;4.70;99.90;;;;;;5008346;28;20533;-48
2021/01/04 02:33:19;;;;;;;5.60;2.40;;;4.70;99.90;;;;;;5008539;28;20504;-48
2021/01/04 02:35:48;;;;;;;4.17;2.13;;;4.70;99.90;;;;;;5007424;28;20495;-48
2021/01/04 02:38:21;;;;;;;6.57;2.23;;;4.70;99.90;;;;;;5013036;28;20537;-48
2021/01/04 02:40:50;;;;;;;4.93;2.30;;;4.70;99.90;;;;;;5018058;28;20479;-48
2021/01/04 02:43:18;;;;;;;6.27;2.17;;;4.70;99.90;;;;;;5025419;28;20557;-48
2021/01/04 02:45:45;;;;;;;3.23;1.60;;;4.70;99.90;;;;;;4993558;28;20520;-48
2021/01/04 02:48:35;;;;;;;2.57;1.83;;;4.70;99.90;;;;;;5008659;28;20476;-48
2021/01/04 02:51:10;;;;;;;3.33;1.80;;;4.70;99.90;;;;;;5008592;28;20506;-48
2021/01/04 02:53:54;;;;;;;3.73;1.80;;;4.70;99.90;;;;;;5008408;28;21257;-48
2021/01/04 02:56:40;;;;;;;3.37;1.83;;;4.70;99.90;;;;;;5008737;28;20569;-48
2021/01/04 02:59:53;;;;;;;4.33;2.00;;;4.70;99.90;;;;;;5026357;28;20997;-48
2021/01/04 03:02:32;;;;;;;3.60;2.20;;;4.70;99.90;;;;;;5026980;28;20469;-48
2021/01/04 03:04:59;;;;;;;4.50;2.27;;;4.60;99.90;;;;;;5028467;28;20485;-48
2021/01/04 03:07:30;;;;;;;2.47;1.83;;;4.60;99.90;;;;;;5028131;28;20604;-48
2021/01/04 03:10:01;;;;;;;5.53;2.27;;;4.50;99.90;;;;;;5024403;28;20529;-49
2021/01/04 03:12:35;;;;;;;6.03;2.10;;;4.40;99.90;;;;;;5027056;28;21022;-48
2021/01/04 03:15:27;;;;;;;3.70;1.90;;;4.40;99.90;;;;;;5013338;28;20486;-48
2021/01/04 03:18:11;;;;;;;3.77;1.70;;;4.40;99.90;;;;;;5008053;28;21157;-48
2021/01/04 03:20:38;;;;;;;5.73;2.00;;;4.40;99.90;;;;;;5007673;28;20568;-49
2021/01/04 03:23:06;;;;;;;4.03;2.10;;;4.40;99.90;;;;;;5007931;28;20977;-48
2021/01/04 03:25:39;;;;;;;5.17;2.20;;;4.30;99.90;;;;;;5008170;28;20496;-49
2021/01/04 03:28:21;;;;;;;2.83;1.63;;;4.30;99.90;;;;;;5008171;28;20553;-48
2021/01/04 03:30:48;;;;;;;3.97;1.50;;;4.30;99.90;;;;;;5007450;28;20575;-48
2021/01/04 03:33:16;;;;;;;2.63;1.50;;;4.30;99.90;;;;;;5005354;28;20484;-48
2021/01/04 03:35:43;;;;;;;2.33;1.33;;;4.20;99.90;;;;;;5000929;28;20490;-48
2021/01/04 03:38:11;;;;;;;2.37;1.30;;;4.20;99.90;;;;;;5025138;28;20503;-48
2021/01/04 03:40:39;;;;;;;2.23;1.40;;;4.20;99.90;;;;;;5027464;28;20853;-48
2021/01/04 03:43:07;;;;;;;2.43;1.40;;;4.20;99.90;;;;;;5007637;28;20498;-48
2021/01/04 03:45:34;;;;;;;2.53;1.33;;;4.20;99.90;;;;;;5007505;28;20503;-48
2021/01/04 03:48:02;;;;;;;2.63;1.60;;;4.10;99.90;;;;;;5007876;28;20525;-48
2021/01/04 03:50:30;;;;;;;3.43;1.40;;;4.10;99.90;;;;;;5010354;28;20458;-49
2021/01/04 03:52:58;;;;;;;3.53;1.30;;;4.10;99.90;;;;;;5007108;28;20476;-48
2021/01/04 03:55:25;;;;;;;2.97;1.67;;;4.10;99.90;;;;;;5007932;28;20511;-48
2021/01/04 03:57:52;;;;;;;3.00;1.67;;;4.00;99.90;;;;;;5007949;28;20495;-48
2021/01/04 04:00:22;;;;;;;2.13;1.20;;;3.90;99.90;;;;;;5007113;28;20538;-48
2021/01/04 04:02:50;;;;;;;2.10;1.47;;;3.90;99.90;;;;;;5008497;28;20486;-49
2021/01/04 04:05:19;;;;;;;2.37;1.40;;;3.90;99.90;;;;;;5008490;28;20571;-48
2021/01/04 04:07:46;;;;;;;2.63;1.60;;;3.90;99.90;;;;;;5007299;28;20565;-48
2021/01/04 04:10:17;;;;;;;3.17;1.20;;;3.90;99.90;;;;;;5007602;28;20563;-48
2021/01/04 04:12:44;;;;;;;3.23;1.53;;;3.90;99.90;;;;;;5006772;28;20986;-48
2021/01/04 04:15:16;;;;;;;2.83;1.50;;;3.80;99.90;;;;;;5007982;28;20799;-48
2021/01/04 04:17:45;;;;;;;2.10;1.50;;;3.90;99.90;;;;;;5007142;28;20544;-48
2021/01/04 04:20:15;;;;;;;2.30;1.40;;;3.90;99.90;;;;;;5006036;28;20560;-48
2021/01/04 04:22:43;;;;;;;1.40;1.30;;;3.90;99.90;;;;;;5009920;28;21073;-48
2021/01/04 04:25:13;;;;;;;3.70;1.60;;;3.90;99.90;;;;;;5010168;28;20495;-48
2021/01/04 04:27:41;;;;;;;1.77;1.40;;;3.90;99.90;;;;;;5022038;28;20563;-48
2021/01/04 04:30:12;;;;;;;1.30;1.20;;;3.80;99.90;;;;;;5020723;28;20558;-48
2021/01/04 04:32:39;;;;;;;2.90;1.30;;;3.70;99.90;;;;;;5009167;28;20578;-48
2021/01/04 04:35:12;;;;;;;2.20;1.43;;;3.70;99.90;;;;;;5015148;28;21801;-48
2021/01/04 04:37:41;;;;;;;2.70;1.53;;;3.70;99.90;;;;;;5023514;28;20588;-48
2021/01/04 04:40:12;;;;;;;2.67;1.30;;;3.70;99.90;;;;;;5009971;28;20498;-48
2021/01/04 04:42:40;;;;;;;3.37;1.40;;;3.60;99.90;;;;;;5009908;28;20552;-48
2021/01/04 04:45:15;;;;;;;3.00;1.70;;;3.60;99.90;;;;;;5010285;28;20475;-48
2021/01/04 04:48:04;;;;;;;1.50;1.40;;;3.50;99.90;;;;;;5008543;28;20551;-48
2021/01/04 04:50:57;;;;;;;2.60;1.40;;;3.50;99.90;;;;;;5028175;28;20972;-48
2021/01/04 04:54:07;;;;;;;1.13;1.00;;;3.50;99.90;;;;;;5010195;28;20556;-48
2021/01/04 04:57:06;;;;;;;1.83;1.30;;;3.50;99.90;;;;;;4968033;28;20485;-48
2021/01/04 04:59:58;;;;;;;2.23;1.60;;;3.50;99.90;;;;;;4990457;28;20823;-48
2021/01/04 05:02:38;;;;;;;1.40;1.20;;;3.40;99.90;;;;;;4988835;28;20481;-49
2021/01/04 05:05:23;;;;;;;2.17;1.50;;;3.50;99.90;;;;;;5008042;28;20534;-48
2021/01/04 05:08:00;;;;;;;3.27;1.47;;;3.50;99.90;;;;;;5001920;28;20567;-48
2021/01/04 05:10:31;;;;;;;1.90;1.60;;;3.50;99.90;;;;;;5009556;28;21121;-48
2021/01/04 05:13:05;;;;;;;2.70;1.77;;;3.50;99.90;;;;;;5010056;28;20923;-48
2021/01/04 05:15:41;;;;;;;1.80;1.70;;;3.50;99.90;;;;;;5001476;28;20475;-48
2021/01/04 05:18:48;;;;;;;1.90;1.60;;;3.40;99.90;;;;;;5001533;28;20476;-48
2021/01/04 05:22:20;;;;;;;2.27;1.60;;;3.40;99.90;;;;;;4935373;28;20504;-48
2021/01/04 05:25:47;;;;;;;1.83;1.60;;;3.40;99.90;;;;;;5000134;28;20509;-48
2021/01/04 05:28:59;;;;;;;3.23;1.57;;;3.40;99.90;;;;;;5002982;28;20494;-48
2021/01/04 05:31:44;;;;;;;3.00;1.70;;;3.40;99.90;;;;;;5001901;28;20569;-48
2021/01/04 05:34:21;;;;;;;3.43;1.80;;;3.40;99.90;;;;;;5010248;28;20831;-48
2021/01/04 05:37:08;;;;;;;1.70;1.60;;;3.40;99.90;;;;;;5010903;28;20811;-48
2021/01/04 05:40:13;;;;;;;2.97;1.70;;;3.30;99.90;;;;;;4992971;28;20507;-47
2021/01/04 05:43:10;;;;;;;3.57;1.90;;;3.30;99.90;;;;;;4995036;28;20565;-48
2021/01/04 05:45:48;;;;;;;3.07;2.10;;;3.30;99.90;;;;;;5005616;28;20505;-51
2021/01/04 05:48:36;;;;;;;2.80;2.07;;;3.30;99.90;;;;;;5004749;28;20573;-51
2021/01/04 05:51:12;;;;;;;2.37;1.70;;;3.30;99.90;;;;;;5010121;28;20831;-49
2021/01/04 05:53:42;;;;;;;2.77;1.80;;;3.30;99.90;;;;;;5001604;28;20468;-51
2021/01/04 05:56:09;;;;;;;3.80;2.00;;;3.30;99.90;;;;;;5013920;28;20469;-48
2021/01/04 05:58:36;;;;;;;2.73;1.70;;;3.30;99.90;;;;;;5035871;28;20483;-48
2021/01/04 06:01:11;;;;;;;3.07;1.90;;;3.30;99.90;;;;;;5009702;28;20465;-48
2021/01/04 06:03:38;;;;;;;2.17;1.70;;;3.20;99.90;;;;;;5007230;28;20525;-48
2021/01/04 06:06:13;;;;;;;3.97;1.77;;;3.20;99.90;;;;;;5009331;28;21055;-48
2021/01/04 06:08:41;;;;;;;2.70;2.00;;;3.20;99.90;;;;;;4998994;28;20548;-48
2021/01/04 06:11:11;;;;;;;3.63;1.90;;;3.20;99.90;;;;;;4998194;28;20569;-48
2021/01/04 06:13:42;;;;;;;3.47;1.87;;;3.20;99.90;;;;;;4998833;28;20529;-48
2021/01/04 06:16:14;;;;;;;2.53;1.93;;;3.20;99.90;;;;;;4999570;28;20513;-48
2021/01/04 06:18:49;;;;;;;2.17;1.70;;;3.20;99.90;;;;;;4998478;28;20491;-48
2021/01/04 06:21:43;;;;;;;2.07;1.87;;;3.20;99.90;;;;;;5004517;28;20582;-48
2021/01/04 06:24:18;;;;;;;4.30;1.97;;;3.20;99.90;;;;;;5006154;28;20570;-48
2021/01/04 06:26:51;;;;;;;3.90;1.90;;;3.20;99.90;;;;;;5000649;28;20504;-48
2021/01/04 06:29:35;;;;;;;2.77;1.87;;;3.20;99.90;;;;;;5001850;28;20774;-49
2021/01/04 06:32:06;;;;;;;2.77;1.93;;;3.10;99.90;;;;;;5008429;28;20923;-49
2021/01/04 06:34:37;;;;;;;3.40;1.83;;;3.20;99.90;;;;;;5008176;28;20509;-48
2021/01/04 06:37:12;;;;;;;2.53;1.93;;;3.10;99.90;;;;;;5020606;28;20546;-48
2021/01/04 06:39:41;;;;;;;3.80;1.80;;;3.20;99.90;;;;;;5006898;28;20933;-48
2021/01/04 06:42:18;;;;;;;3.70;2.23;;;3.20;99.90;;;;;;4999075;28;21280;-49
2021/01/04 06:45:07;;;;;;;3.87;2.20;;;3.10;99.90;;;;;;5000513;28;20561;-48
2021/01/04 06:47:50;;;;;;;3.00;1.90;;;3.10;99.90;;;;;;5005088;28;20903;-48
2021/01/04 06:50:28;;;;;;;6.73;2.40;;;3.10;99.90;;;;;;5008610;28;20472;-48
2021/01/04 06:54:03;;;;;;;2.03;1.83;;;3.20;99.90;;;;;;5008088;28;20535;-48
2021/01/04 06:57:29;;;;;;;3.77;1.93;;;3.10;99.90;;;;;;5004852;28;20491;-49
2021/01/04 07:00:24;;;;;;;2.57;1.80;;;3.00;99.90;;;;;;5003267;28;20472;-48
2021/01/04 07:03:39;;;;;;;2.80;1.90;;;3.00;99.90;;;;;;5006366;28;20734;-48
2021/01/04 07:06:59;;;;;;;2.77;2.03;;;3.00;99.90;;;;;;4945649;28;20569;-48
2021/01/04 07:10:09;;;;;;;2.77;1.90;;;3.00;99.90;;;;;;4996941;28;20493;-49
2021/01/04 07:12:58;;;;;;;2.17;1.90;;;3.00;99.90;;;;;;4975341;28;20539;-49
2021/01/04 07:15:29;;;;;;;2.80;2.00;;;3.00;99.90;;;;;;5026095;28;20489;-49
2021/01/04 07:18:28;;;;;;;3.23;1.90;;;3.00;99.90;;;;;;5013389;28;21006;-48
2021/01/04 07:21:36;;;;;;;3.73;2.17;;;3.00;99.90;;;;;;5007197;28;20532;-47
2021/01/04 07:24:43;;;;;;;4.40;2.30;;;3.00;99.90;;;;;;5004736;28;20472;-48
2021/01/04 07:27:46;;;;;;;2.57;1.80;;;3.00;99.90;;;;;;5009769;28;20469;-49
2021/01/04 07:30:47;;;;;;;4.17;2.20;;;3.00;99.90;;;;;;5022047;28;20469;-48
2021/01/04 07:33:29;;;;;;;3.47;2.00;;;3.00;99.90;;;;;;5019231;28;21195;-48
2021/01/04 07:36:06;;;;;;;3.47;2.10;;;3.00;99.90;;;;;;5007910;28;21046;-48
2021/01/04 07:38:42;;;;;;;3.87;2.00;;;3.00;99.90;;;;;;5007190;28;20552;-48
2021/01/04 07:41:27;;;;;;;7.57;2.67;;;3.00;99.90;;;;;;5006889;28;20561;-48
2021/01/04 07:44:28;;;;;;;3.90;2.03;;;3.40;99.90;;;;;;5007147;28;20569;-48
2021/01/04 07:47:57;;;;;;;2.37;1.57;;;3.20;99.90;;;;;;5007699;28;20922;-48
2021/01/04 07:51:09;;;;;;;3.83;1.70;;;3.10;99.90;;;;;;5006388;28;20531;-48
2021/01/04 07:54:17;;;;;;;2.60;1.70;;;3.00;99.90;;;;;;4999559;28;20515;-48
2021/01/04 07:57:36;;;;;;;3.47;1.83;;;3.00;99.90;;;;;;5005238;28;21065;-48
2021/01/04 08:00:37;;;;;;;4.07;1.90;;;3.00;99.90;;;;;;5005146;28;20474;-48
2021/01/04 08:04:02;;;;;;;3.63;1.60;;;3.00;99.90;;;;;;5005126;28;20556;-48
2021/01/04 08:07:40;;;;;;;5.25;2.20;;;3.00;99.90;;;;;;5005567;28;20552;-47
2021/01/04 08:10:38;;;;;;;2.50;1.70;;;2.90;99.90;;;;;;4965467;28;20292;-48
2021/01/04 08:13:38;;;;;;;2.80;1.60;;;2.90;99.90;;;;;;4983461;28;20485;-48
2021/01/04 08:16:09;;;;;;;3.40;1.30;;;2.90;99.90;;;;;;4997918;28;20921;-48
2021/01/04 08:18:37;;;;;;;5.30;1.87;;;2.90;99.90;;;;;;5002235;28;21035;-47
2021/01/04 08:21:26;;;;;;;2.93;1.70;;;2.90;99.90;;;;;;5007080;28;20498;-47
2021/01/04 08:24:05;;;;;;;3.73;1.80;;;2.90;99.90;;;;;;5001453;28;20542;-47
2021/01/04 08:27:12;;;;;;;2.43;1.57;;;2.90;99.90;;;;;;5005516;28;20505;-47
2021/01/04 08:29:50;;;;;;;2.23;1.63;;;2.90;99.90;;;;;;5001370;28;20554;-47
2021/01/04 08:32:24;;;;;;;2.93;1.80;;;2.90;99.90;;;;;;5000964;28;20867;-47
2021/01/04 08:34:53;;;;;;;3.60;2.03;;;2.90;99.90;;;;;;5001694;28;21249;-47
2021/01/04 08:37:34;;;;;;;5.93;1.70;;;3.00;99.90;;;;;;5003139;28;20934;-47
2021/01/04 08:40:23;;;;;;;2.23;1.60;;;3.00;99.90;;;;;;5003427;28;20481;-47
2021/01/04 08:43:03;;;;;;;2.30;1.70;;;3.00;99.90;;;;;;5002534;28;20932;-48
2021/01/04 08:45:35;;;;;;;3.93;2.10;;;3.00;99.90;;;;;;5003408;28;20660;-47
2021/01/04 08:48:15;;;;;;;5.47;2.23;;;3.00;99.90;;;;;;5003066;28;21052;-47
2021/01/04 08:50:47;;;;;;;2.50;1.30;;;3.00;99.90;;;;;;5002926;28;20559;-47
2021/01/04 08:53:21;;;;;;;3.13;1.33;;;3.00;99.90;;;;;;5002262;28;20694;-47
2021/01/04 08:55:52;;;;;;;5.87;1.93;;;3.00;99.90;;;;;;5003651;28;20549;-49
2021/01/04 08:58:34;;;;;;;5.20;1.63;;;3.00;99.90;;;;;;5003058;28;20555;-47
2021/01/04 09:01:08;;;;;;;4.33;1.87;;;3.00;99.90;;;;;;5003190;28;21152;-47
2021/01/04 09:03:36;;;;;;;4.07;1.50;;;3.00;99.90;;;;;;4996026;28;20572;-47
2021/01/04 09:06:27;;;;;;;2.80;1.60;;;3.10;99.90;;;;;;5002087;28;20573;-47
2021/01/04 09:09:09;;;;;;;4.20;1.73;;;3.10;99.90;;;;;;5005397;28;20900;-47
2021/01/04 09:11:42;;;;;;;4.90;1.90;;;3.10;99.90;;;;;;5000536;28;20564;-47
2021/01/04 09:14:19;;;;;;;2.20;1.60;;;3.10;99.90;;;;;;4998158;28;20478;-47
2021/01/04 09:16:47;;;;;;;3.97;2.20;;;3.10;99.90;;;;;;4987010;28;21145;-47
2021/01/04 09:19:25;;;;;;;4.03;2.00;;;3.10;99.90;;;;;;5001417;28;20512;-47
2021/01/04 09:22:06;;;;;;;4.53;2.03;;;3.10;99.90;;;;;;5000054;28;20570;-47
2021/01/04 09:24:39;;;;;;;2.80;1.70;;;3.10;99.90;;;;;;5005186;28;20487;-47
2021/01/04 09:27:26;;;;;;;3.00;2.00;;;3.10;99.90;;;;;;5005277;28;20487;-47
2021/01/04 09:29:57;;;;;;;3.57;1.70;;;3.00;99.90;;;;;;5005754;28;20488;-47
2021/01/04 09:32:35;;;;;;;3.40;1.70;;;3.10;99.90;;;;;;5005374;28;21099;-47
2021/01/04 09:35:07;;;;;;;4.20;2.10;;;3.10;99.90;;;;;;5005131;28;20513;-47
2021/01/04 09:38:01;;;;;;;1.97;1.67;;;3.10;99.90;;;;;;4996535;28;20835;-47
2021/01/04 09:40:30;;;;;;;3.63;2.10;;;3.10;99.90;;;;;;5005133;28;20483;-47
2021/01/04 09:43:06;;;;;;;3.73;2.10;;;3.10;99.90;;;;;;5005193;28;20492;-47
2021/01/04 09:45:34;;;;;;;3.13;1.83;;;3.10;99.90;;;;;;5003529;28;21012;-47
2021/01/04 09:48:06;;;;;;;1.93;1.50;;;3.10;99.90;;;;;;5005147;28;20616;-48
2021/01/04 09:50:42;;;;;;;6.30;2.53;;;3.10;99.90;;;;;;5005550;28;20567;-47
2021/01/04 09:53:19;;;;;;;6.90;2.47;;;3.10;99.90;;;;;;5005658;28;20517;-47
2021/01/04 09:55:48;;;;;;;4.53;2.00;;;3.10;99.90;;;;;;5005021;28;20573;-47
2021/01/04 09:58:20;;;;;;;2.47;1.93;;;3.10;99.90;;;;;;5005065;28;20482;-47
2021/01/04 10:00:48;;;;;;;3.17;2.40;;;3.10;99.90;;;;;;5003248;28;20953;-47
2021/01/04 10:03:19;;;;;;;7.20;3.10;;;3.10;99.90;;;;;;5003502;28;20470;-47
2021/01/04 10:05:50;;;;;;;2.97;2.40;;;3.10;99.90;;;;;;4996813;28;20533;-48
2021/01/04 10:08:22;;;;;;;5.33;3.43;;;3.10;99.90;;;;;;4996790;28;20929;-47
2021/01/04 10:11:00;;;;;;;3.87;2.40;;;3.10;99.90;;;;;;5000684;28;20501;-47
2021/01/04 10:13:32;;;;;;;3.90;2.37;;;3.10;99.90;;;;;;4999140;28;20507;-47
2021/01/04 10:16:05;;;;;;;3.40;2.53;;;3.10;99.90;;;;;;5004794;28;20504;-47
2021/01/04 10:18:42;;;;;;;3.87;2.40;;;3.00;99.90;;;;;;4998590;28;20515;-47
2021/01/04 10:21:16;;;;;;;3.60;2.90;;;3.00;99.90;;;;;;5007166;28;20536;-47
2021/01/04 10:23:50;;;;;;;4.60;2.83;;;3.00;99.90;;;;;;5014058;28;21018;-47
2021/01/04 10:26:39;;;;;;;2.90;2.43;;;3.00;99.90;;;;;;4991029;28;20482;-48
2021/01/04 10:29:08;;;;;;;3.87;2.60;;;3.00;99.90;;;;;;5006682;28;20484;-48
2021/01/04 10:31:35;;;;;;;3.43;2.60;;;3.00;99.90;;;;;;4995923;28;20473;-48
2021/01/04 10:34:07;;;;;;;3.23;2.33;;;3.00;99.90;;;;;;5005101;28;20487;-47
2021/01/04 10:36:36;;;;;;;5.00;3.90;;;3.00;99.90;;;;;;5008196;28;20501;-48
2021/01/04 10:39:13;;;;;;;4.77;2.93;;;3.10;99.90;;;;;;5008070;28;20513;-48
2021/01/04 10:41:41;;;;;;;3.07;2.70;;;3.10;99.90;;;;;;5008416;28;20515;-48
2021/01/04 10:44:14;;;;;;;5.70;2.57;;;3.10;99.90;;;;;;5008360;28;20503;-48
2021/01/04 10:46:44;;;;;;;2.73;2.47;;;3.10;99.90;;;;;;5005091;28;21101;-47
2021/01/04 10:49:25;;;;;;;3.80;3.40;;;3.10;99.90;;;;;;5002410;28;20494;-48
2021/01/04 10:51:55;;;;;;;5.93;2.57;;;3.10;99.90;;;;;;5004618;28;20521;-47
2021/01/04 10:54:37;;;;;;;3.13;2.43;;;3.10;99.90;;;;;;5004536;28;20474;-47
2021/01/04 10:57:19;;;;;;;4.47;2.50;;;3.10;99.90;;;;;;5004597;28;20983;-47
2021/01/04 10:59:58;;;;;;;3.57;2.50;;;3.10;99.90;;;;;;5005155;28;20490;-48
2021/01/04 11:02:26;;;;;;;4.37;2.60;;;3.10;99.90;;;;;;5008605;28;20477;-47
2021/01/04 11:04:54;;;;;;;4.03;2.23;;;3.10;99.90;;;;;;5007988;28;20489;-47
2021/01/04 11:07:30;;;;;;;3.60;2.63;;;3.10;99.90;;;;;;5007440;28;20476;-47
2021/01/04 11:10:10;;;;;;;5.13;2.57;;;3.10;99.90;;;;;;5001379;28;20564;-47
2021/01/04 11:12:47;;;;;;;4.30;2.30;;;3.10;99.90;;;;;;5003893;28;20834;-47
2021/01/04 11:15:27;;;;;;;4.50;2.57;;;3.10;99.90;;;;;;5003770;28;20983;-47
2021/01/04 11:18:08;;;;;;;3.23;2.33;;;3.10;99.90;;;;;;5009175;28;20502;-47
2021/01/04 11:20:37;;;;;;;5.93;2.87;;;3.10;99.90;;;;;;5015094;28;20567;-47
2021/01/04 11:23:09;;;;;;;2.47;2.07;;;3.10;99.90;;;;;;5013531;28;20534;-47
2021/01/04 11:25:38;;;;;;;5.57;2.77;;;3.10;99.90;;;;;;5006337;28;20565;-47
2021/01/04 11:28:06;;;;;;;4.03;2.30;;;3.10;99.90;;;;;;5006395;28;20803;-47
2021/01/04 11:30:52;;;;;;;2.70;2.30;;;3.10;99.90;;;;;;5005153;28;21032;-47
2021/01/04 11:33:24;;;;;;;3.17;1.93;;;3.10;99.90;;;;;;5006225;28;20919;-47
2021/01/04 11:35:52;;;;;;;3.73;2.33;;;3.00;99.90;;;;;;5006696;28;21075;-47
2021/01/04 11:38:19;;;;;;;3.13;1.70;;;3.00;99.90;;;;;;5006145;28;20512;-48
2021/01/04 11:40:46;;;;;;;3.03;2.00;;;3.10;99.90;;;;;;5005477;28;20552;-47
2021/01/04 11:43:14;;;;;;;4.00;1.80;;;3.10;99.90;;;;;;5006018;28;20569;-48
2021/01/04 11:45:41;;;;;;;2.83;1.70;;;3.10;99.90;;;;;;5005925;28;20499;-47
2021/01/04 11:48:10;;;;;;;5.93;1.90;;;3.10;99.90;;;;;;4997147;28;20482;-47
2021/01/04 11:50:37;;;;;;;5.30;2.20;;;3.10;99.90;;;;;;5001823;28;20566;-48
2021/01/04 11:53:05;;;;;;;2.73;1.70;;;3.10;99.90;;;;;;5005183;28;20493;-47
2021/01/04 11:55:32;;;;;;;2.10;1.53;;;3.10;99.90;;;;;;5005675;28;20602;-47
2021/01/04 11:57:59;;;;;;;3.60;2.00;;;3.10;99.90;;;;;;4994077;28;20491;-47
2021/01/04 12:00:28;;;;;;;2.63;1.60;;;3.10;99.90;;;;;;5004880;28;20476;-47
2021/01/04 12:02:56;;;;;;;3.23;1.80;;;3.10;99.90;;;;;;5004919;28;20480;-47
2021/01/04 12:05:24;;;;;;;2.20;1.50;;;3.10;99.90;;;;;;5005755;28;20484;-48
2021/01/04 12:07:53;;;;;;;3.10;2.00;;;3.10;99.90;;;;;;5005811;28;20480;-47
2021/01/04 12:10:22;;;;;;;4.40;2.20;;;3.10;99.90;;;;;;5009309;28;20479;-47
2021/01/04 12:12:50;;;;;;;2.63;1.73;;;3.10;99.90;;;;;;5014131;28;20893;-48
2021/01/04 12:15:19;;;;;;;2.43;1.63;;;3.10;99.90;;;;;;5006823;28;20543;-47
2021/01/04 12:17:46;;;;;;;3.33;1.73;;;3.10;99.90;;;;;;5005467;28;20513;-48
2021/01/04 12:20:14;;;;;;;2.33;1.83;;;3.10;99.90;;;;;;5004335;28;20505;-48
2021/01/04 12:22:42;;;;;;;4.73;1.50;;;3.20;99.90;;;;;;5002542;28;21059;-47
2021/01/04 12:25:11;;;;;;;2.80;1.90;;;3.20;99.90;;;;;;5006043;28;21040;-47
2021/01/04 12:27:38;;;;;;;3.00;1.50;;;3.10;99.90;;;;;;5005625;28;20540;-47
2021/01/04 12:30:08;;;;;;;2.03;1.60;;;3.10;99.90;;;;;;5005437;28;20532;-47
2021/01/04 12:32:35;;;;;;;2.43;1.60;;;3.10;99.90;;;;;;5005303;28;20474;-47
2021/01/04 12:35:03;;;;;;;3.47;1.87;;;3.10;99.90;;;;;;5006183;28;20620;-48
2021/01/04 12:37:31;;;;;;;2.63;1.60;;;3.20;99.90;;;;;;5003522;28;20546;-47
2021/01/04 12:39:59;;;;;;;2.80;1.40;;;3.20;99.90;;;;;;5004270;28;20500;-47
2021/01/04 12:42:26;;;;;;;2.70;1.37;;;3.20;99.90;;;;;;4994123;28;20579;-48
2021/01/04 12:44:54;;;;;;;4.13;1.50;;;3.20;99.90;;;;;;4992937;28;20483;-49
2021/01/04 12:47:21;;;;;;;1.97;1.43;;;3.20;99.90;;;;;;5010561;28;20881;-47
2021/01/04 12:49:49;;;;;;;2.53;1.37;;;3.20;99.90;;;;;;5010668;28;20969;-48
2021/01/04 12:52:18;;;;;;;1.63;1.30;;;3.20;99.90;;;;;;4995524;28;20474;-47
2021/01/04 12:54:45;;;;;;;2.80;1.37;;;3.20;99.90;;;;;;4990941;28;20481;-47
2021/01/04 12:57:13;;;;;;;6.23;2.53;;;3.20;99.90;;;;;;5006645;28;20497;-47
2021/01/04 12:59:41;;;;;;;2.03;1.50;;;3.20;99.90;;;;;;5010883;28;20480;-48
2021/01/04 13:02:10;;;;;;;3.80;1.40;;;3.20;99.90;;;;;;5009930;28;20800;-47
2021/01/04 13:04:42;;;;;;;3.23;1.70;;;3.20;99.90;;;;;;5011028;28;20482;-49
2021/01/04 13:07:11;;;;;;;3.20;1.60;;;3.20;99.90;;;;;;5006020;28;21071;-48
2021/01/04 13:09:39;;;;;;;2.27;1.60;;;3.30;99.90;;;;;;5003718;28;20465;-48
2021/01/04 13:12:07;;;;;;;3.50;1.60;;;3.20;99.90;;;;;;5005255;28;20879;-47
2021/01/04 13:14:36;;;;;;;2.40;1.50;;;3.20;99.90;;;;;;5006538;28;20556;-47
2021/01/04 13:17:03;;;;;;;3.53;1.57;;;3.20;99.90;;;;;;5009652;28;20451;-47
2021/01/04 13:19:31;;;;;;;2.23;1.50;;;3.20;99.90;;;;;;5015902;28;20496;-47
2021/01/04 13:21:59;;;;;;;2.77;1.50;;;3.20;99.90;;;;;;5010156;28;20486;-48
2021/01/04 13:24:27;;;;;;;2.57;1.50;;;3.20;99.90;;;;;;5010272;28;20512;-48
2021/01/04 13:26:56;;;;;;;1.77;1.27;;;3.20;99.90;;;;;;5010162;28;20491;-47
2021/01/04 13:29:28;;;;;;;3.63;1.50;;;3.10;99.90;;;;;;5010560;28;20507;-47
2021/01/04 13:32:01;;;;;;;2.83;1.70;;;3.20;99.90;;;;;;5009462;28;20548;-47
2021/01/04 13:34:29;;;;;;;2.07;1.33;;;3.20;99.90;;;;;;5010345;28;20512;-47
2021/01/04 13:36:57;;;;;;;1.50;1.40;;;3.10;99.90;;;;;;5010311;28;20577;-47
2021/01/04 13:39:25;;;;;;;1.93;1.70;;;3.10;99.90;;;;;;5008708;28;20504;-48
2021/01/04 13:41:55;;;;;;;4.37;1.80;;;3.20;99.90;;;;;;4989829;28;21037;-47
2021/01/04 13:44:25;;;;;;;4.57;1.70;;;3.20;99.90;;;;;;5000520;28;20477;-46
2021/01/04 13:46:58;;;;;;;1.83;1.50;;;3.20;99.90;;;;;;4998484;28;20488;-47
2021/01/04 13:49:26;;;;;;;2.47;1.50;;;3.10;99.90;;;;;;5003117;28;20505;-47
2021/01/04 13:51:53;;;;;;;2.20;1.70;;;3.20;99.90;;;;;;5004451;28;20515;-47
2021/01/04 13:54:21;;;;;;;2.93;2.00;;;3.20;99.90;;;;;;5002449;28;20602;-48
2021/01/04 13:56:50;;;;;;;3.60;1.60;;;3.10;99.90;;;;;;5006670;28;21056;-47
2021/01/04 13:59:18;;;;;;;1.70;1.33;;;3.10;99.90;;;;;;5005322;28;20571;-48